Time;durP1;ratioP1;P1;durP2;ratioP2;P2;SDS_P1;SDS_P2;PMS_P1;PMS_P2;Temp;Humidity;BMP_temperature;BMP_pressure;BME280_temperature;BME280_humidity;BME280_pressure;Samples;Min_cycle;Max_cycle;Signal;HPM_P1;HPM_P2
2023/09/13 00:02:17;;;;;;;12.73;2.63;;;20.70;99.90;;;;;;4952775;29;20111;-83
2023/09/13 00:04:43;;;;;;;6.72;2.17;;;20.40;99.90;;;;;;4968555;28;20031;-84
2023/09/13 00:07:08;;;;;;;8.27;3.42;;;20.20;99.90;;;;;;4953132;29;20179;-83
2023/09/13 00:09:34;;;;;;;10.55;3.08;;;20.40;99.90;;;;;;4955510;29;20039;-83
2023/09/13 00:11:59;;;;;;;10.93;2.70;;;21.00;99.90;;;;;;4956203;29;20046;-84
2023/09/13 00:14:25;;;;;;;10.38;2.83;;;20.60;99.90;;;;;;4970466;28;20192;-84
2023/09/13 00:16:51;;;;;;;12.07;2.90;;;20.10;99.90;;;;;;4953264;29;20039;-84
2023/09/13 00:19:17;;;;;;;8.95;2.78;;;21.30;99.90;;;;;;4969249;28;20542;-84
2023/09/13 00:21:43;;;;;;;6.90;2.63;;;20.30;99.90;;;;;;4969735;28;20047;-84
2023/09/13 00:24:09;;;;;;;7.63;2.33;;;20.20;99.90;;;;;;4969214;29;20050;-81
2023/09/13 00:26:35;;;;;;;11.38;2.90;;;20.30;99.90;;;;;;4992449;28;20039;-80
2023/09/13 00:29:01;;;;;;;9.20;2.67;;;20.30;99.90;;;;;;4993372;28;20086;-80
2023/09/13 00:31:27;;;;;;;9.65;2.45;;;20.20;99.90;;;;;;4971892;28;20054;-82
2023/09/13 00:33:53;;;;;;;8.93;3.42;;;20.20;99.90;;;;;;4974183;28;20043;-83
2023/09/13 00:36:18;;;;;;;11.95;2.60;;;20.30;99.90;;;;;;4959580;28;20489;-83
2023/09/13 00:38:44;;;;;;;8.57;2.53;;;20.20;99.90;;;;;;4943523;29;20035;-83
2023/09/13 00:41:10;;;;;;;7.05;2.05;;;20.60;99.90;;;;;;4959087;29;20557;-84
2023/09/13 00:43:36;;;;;;;9.75;3.13;;;20.20;99.90;;;;;;4957887;29;20121;-83
2023/09/13 00:46:03;;;;;;;7.00;3.00;;;20.10;99.90;;;;;;4957673;29;20039;-82
2023/09/13 00:48:29;;;;;;;8.63;3.00;;;21.10;99.90;;;;;;4958208;29;20046;-83
2023/09/13 00:50:56;;;;;;;10.20;3.53;;;20.40;99.90;;;;;;4975074;28;20035;-83
2023/09/13 00:53:23;;;;;;;10.07;3.00;;;20.20;99.90;;;;;;4975502;28;20070;-83
2023/09/13 00:55:50;;;;;;;19.52;3.80;;;20.20;99.90;;;;;;4974779;28;20043;-84
2023/09/13 00:58:18;;;;;;;10.02;3.33;;;20.10;99.90;;;;;;4974206;28;20446;-82
2023/09/13 01:00:43;;;;;;;6.45;2.85;;;20.60;99.90;;;;;;4974511;28;20044;-83
2023/09/13 01:03:09;;;;;;;9.50;2.55;;;19.90;99.90;;;;;;4958263;29;20042;-83
2023/09/13 01:05:36;;;;;;;6.75;3.17;;;20.20;99.90;;;;;;4940883;29;20099;-83
2023/09/13 01:08:03;;;;;;;8.77;2.40;;;19.90;99.90;;;;;;4958338;29;20122;-83
2023/09/13 01:10:28;;;;;;;6.45;2.20;;;20.10;99.90;;;;;;4960393;28;20109;-84
2023/09/13 01:12:54;;;;;;;12.48;3.03;;;20.40;99.90;;;;;;4974103;28;20047;-83
2023/09/13 01:15:22;;;;;;;11.25;2.33;;;20.00;99.90;;;;;;4959401;29;20050;-83
2023/09/13 01:18:03;;;;;;;5.28;3.05;;;20.00;99.90;;;;;;4958006;29;20054;-83
2023/09/13 01:20:48;;;;;;;8.60;2.85;;;20.10;99.90;;;;;;4959330;29;20098;-83
2023/09/13 01:23:48;;;;;;;8.50;2.35;;;20.20;99.90;;;;;;4958857;28;20057;-83
2023/09/13 01:26:29;;;;;;;15.00;2.60;;;20.10;99.90;;;;;;4957874;28;20121;-83
2023/09/13 01:28:55;;;;;;;8.00;3.05;;;20.10;99.90;;;;;;4940533;29;20035;-83
2023/09/13 01:31:21;;;;;;;13.98;2.88;;;20.30;99.90;;;;;;4957844;29;20066;-84
2023/09/13 01:33:48;;;;;;;9.05;3.38;;;20.00;99.90;;;;;;4941452;29;20483;-83
2023/09/13 01:36:14;;;;;;;9.07;2.25;;;20.10;99.90;;;;;;4972501;28;20046;-83
2023/09/13 01:38:40;;;;;;;9.80;3.45;;;20.00;99.90;;;;;;4957503;29;20066;-82
2023/09/13 01:41:21;;;;;;;5.93;2.80;;;22.10;99.90;;;;;;4957523;28;20523;-82
2023/09/13 01:43:53;;;;;;;10.10;3.55;;;20.00;99.90;;;;;;4957061;28;20079;-83
2023/09/13 01:46:20;;;;;;;5.70;2.88;;;20.00;99.90;;;;;;4972278;28;20047;-84
2023/09/13 01:48:46;;;;;;;10.68;2.70;;;20.10;99.90;;;;;;4974278;28;20035;-84
2023/09/13 01:51:13;;;;;;;8.02;2.55;;;20.10;99.90;;;;;;4973139;28;20058;-83
2023/09/13 01:53:45;;;;;;;10.95;2.95;;;19.90;99.90;;;;;;4956544;29;20054;-83
2023/09/13 01:56:11;;;;;;;7.18;2.55;;;20.20;99.90;;;;;;4973127;28;20626;-83
2023/09/13 01:58:37;;;;;;;10.68;2.38;;;22.00;99.90;;;;;;4970289;28;20045;-82
2023/09/13 02:01:02;;;;;;;12.48;2.20;;;19.90;99.90;;;;;;4992561;28;20503;-84
2023/09/13 02:03:28;;;;;;;7.57;2.83;;;19.70;99.90;;;;;;4959950;28;20046;-83
2023/09/13 02:05:54;;;;;;;12.93;3.70;;;20.10;99.90;;;;;;4992299;28;20066;-83
2023/09/13 02:08:19;;;;;;;10.45;3.58;;;20.10;99.90;;;;;;4961217;28;20476;-82
2023/09/13 02:10:48;;;;;;;12.65;3.28;;;20.20;99.90;;;;;;4961488;28;20490;-83
2023/09/13 02:13:14;;;;;;;9.98;3.00;;;20.30;99.90;;;;;;4994489;28;20086;-83
2023/09/13 02:15:40;;;;;;;8.98;2.70;;;20.00;99.90;;;;;;4993536;28;20045;-83
2023/09/13 02:18:07;;;;;;;6.78;2.50;;;19.70;99.90;;;;;;4992469;28;20049;-83
2023/09/13 02:20:32;;;;;;;8.05;2.63;;;20.00;99.90;;;;;;4978185;28;20406;-84
2023/09/13 02:22:58;;;;;;;10.43;2.55;;;20.10;99.90;;;;;;4978396;28;20039;-83
2023/09/13 02:25:23;;;;;;;9.18;2.40;;;21.20;99.90;;;;;;4992468;28;20039;-84
2023/09/13 02:27:49;;;;;;;8.75;2.67;;;19.70;99.90;;;;;;4960252;28;20042;-83
2023/09/13 02:30:15;;;;;;;12.80;3.00;;;20.40;99.90;;;;;;4991830;28;20134;-83
2023/09/13 02:32:41;;;;;;;10.98;2.70;;;20.30;99.90;;;;;;4977819;28;20495;-83
2023/09/13 02:35:07;;;;;;;9.30;2.50;;;20.30;99.90;;;;;;4992028;28;20069;-82
2023/09/13 02:37:33;;;;;;;8.18;2.40;;;19.80;99.90;;;;;;4959496;28;20046;-83
2023/09/13 02:39:59;;;;;;;6.47;2.40;;;20.50;99.90;;;;;;4959716;28;20391;-82
2023/09/13 02:42:24;;;;;;;7.40;2.30;;;19.60;99.90;;;;;;4992418;28;20039;-83
2023/09/13 02:44:50;;;;;;;5.82;2.25;;;19.70;99.90;;;;;;4960386;28;20035;-84
2023/09/13 02:47:16;;;;;;;8.27;2.40;;;20.80;99.90;;;;;;4959865;28;20037;-83
2023/09/13 02:49:42;;;;;;;9.73;2.38;;;19.80;99.90;;;;;;4960692;28;20038;-83
2023/09/13 02:52:07;;;;;;;4.88;2.08;;;19.90;99.90;;;;;;4960752;28;20459;-83
2023/09/13 02:54:34;;;;;;;5.38;2.17;;;20.50;99.90;;;;;;4994017;28;20054;-82
2023/09/13 02:57:00;;;;;;;6.05;2.00;;;19.90;99.90;;;;;;4961340;28;20050;-82
2023/09/13 02:59:26;;;;;;;11.05;3.05;;;19.60;99.90;;;;;;4960904;28;20050;-83
2023/09/13 03:01:51;;;;;;;6.30;2.15;;;20.60;99.90;;;;;;4977584;28;20046;-83
2023/09/13 03:04:17;;;;;;;7.88;2.50;;;19.70;99.90;;;;;;4994641;28;20053;-83
2023/09/13 03:06:43;;;;;;;5.40;1.70;;;19.70;99.90;;;;;;4961542;28;20066;-82
2023/09/13 03:09:09;;;;;;;8.63;2.47;;;19.50;99.90;;;;;;4995023;28;20034;-83
2023/09/13 03:11:35;;;;;;;8.90;2.88;;;19.50;99.90;;;;;;4962062;28;20035;-83
2023/09/13 03:14:02;;;;;;;9.95;2.67;;;19.40;99.90;;;;;;4994284;28;20043;-83
2023/09/13 03:16:27;;;;;;;7.38;2.13;;;19.20;99.90;;;;;;4991764;28;20047;-84
2023/09/13 03:18:54;;;;;;;9.77;3.42;;;19.30;99.90;;;;;;4961266;28;20053;-83
2023/09/13 03:21:20;;;;;;;10.95;3.30;;;19.30;99.90;;;;;;4975888;28;20034;-84
2023/09/13 03:23:50;;;;;;;5.90;2.55;;;19.00;99.90;;;;;;4976388;28;20098;-84
2023/09/13 03:26:24;;;;;;;9.32;3.80;;;19.40;99.90;;;;;;4993300;28;20504;-84
2023/09/13 03:28:55;;;;;;;10.98;2.80;;;19.20;99.90;;;;;;4979122;28;20067;-84
2023/09/13 03:31:23;;;;;;;6.32;2.15;;;21.40;99.90;;;;;;4981287;28;20047;-84
2023/09/13 03:33:50;;;;;;;7.35;3.25;;;19.10;99.90;;;;;;4980490;28;20451;-85
2023/09/13 03:36:16;;;;;;;7.65;2.60;;;19.60;99.90;;;;;;4992666;28;20457;-83
2023/09/13 03:38:43;;;;;;;8.50;2.70;;;19.10;99.90;;;;;;4980457;28;20039;-82
2023/09/13 03:41:11;;;;;;;8.98;2.72;;;18.90;99.90;;;;;;4983462;28;20093;-83
2023/09/13 03:43:37;;;;;;;4.88;2.50;;;19.60;99.90;;;;;;4998354;28;20109;-82
2023/09/13 03:46:04;;;;;;;9.55;2.85;;;18.80;99.90;;;;;;4998037;28;20066;-82
2023/09/13 03:48:31;;;;;;;10.00;3.60;;;18.70;99.90;;;;;;4981802;28;20534;-81
2023/09/13 03:50:57;;;;;;;7.60;3.30;;;19.20;99.90;;;;;;4989527;28;20086;-83
2023/09/13 03:53:23;;;;;;;5.80;2.80;;;18.70;99.90;;;;;;4990018;28;20046;-82
2023/09/13 03:55:49;;;;;;;6.75;2.60;;;18.50;99.90;;;;;;4988908;28;20049;-82
2023/09/13 03:58:15;;;;;;;8.57;2.75;;;18.40;99.90;;;;;;4989158;28;20034;-82
2023/09/13 04:00:41;;;;;;;7.95;2.58;;;18.40;99.90;;;;;;4957657;28;20047;-81
2023/09/13 04:03:06;;;;;;;7.13;2.63;;;18.40;99.90;;;;;;4989529;28;20078;-81
2023/09/13 04:05:32;;;;;;;4.97;1.92;;;18.40;99.90;;;;;;4989216;28;20035;-82
2023/09/13 04:07:58;;;;;;;7.28;1.98;;;18.50;99.90;;;;;;4990687;28;20065;-81
2023/09/13 04:10:24;;;;;;;8.10;2.17;;;17.90;99.90;;;;;;4960790;28;20042;-82
2023/09/13 04:12:49;;;;;;;6.32;2.70;;;18.10;99.90;;;;;;4992624;28;20076;-82
2023/09/13 04:15:15;;;;;;;10.32;2.65;;;17.80;99.90;;;;;;4993081;28;20047;-81
2023/09/13 04:17:41;;;;;;;9.57;2.47;;;18.20;99.90;;;;;;4992903;28;20512;-81
2023/09/13 04:20:08;;;;;;;6.93;2.22;;;18.20;99.90;;;;;;4992971;28;20070;-80
2023/09/13 04:22:34;;;;;;;8.02;2.53;;;17.90;99.90;;;;;;4992804;28;20043;-82
2023/09/13 04:24:59;;;;;;;10.35;2.30;;;17.40;99.90;;;;;;4992718;28;20042;-80
2023/09/13 04:27:25;;;;;;;4.35;1.88;;;17.80;99.90;;;;;;4977370;28;20058;-82
2023/09/13 04:29:54;;;;;;;9.20;2.00;;;17.60;99.90;;;;;;4977991;28;20035;-82
2023/09/13 04:32:20;;;;;;;7.05;1.92;;;17.90;99.90;;;;;;4992515;28;20398;-82
2023/09/13 04:34:46;;;;;;;9.77;2.80;;;18.30;99.90;;;;;;4991983;28;20518;-81
2023/09/13 04:37:12;;;;;;;5.15;2.25;;;17.60;99.90;;;;;;4977384;28;20038;-81
2023/09/13 04:39:38;;;;;;;6.40;1.90;;;17.90;99.90;;;;;;4992559;28;20051;-81
2023/09/13 04:42:07;;;;;;;11.77;2.20;;;17.50;99.90;;;;;;4975906;28;20061;-81
2023/09/13 04:44:33;;;;;;;5.47;2.20;;;17.30;99.90;;;;;;4992067;28;20080;-82
2023/09/13 04:46:59;;;;;;;6.20;1.95;;;17.80;99.90;;;;;;4992254;28;20647;-81
2023/09/13 04:49:25;;;;;;;6.32;1.77;;;17.90;99.90;;;;;;4991955;28;20042;-83
2023/09/13 04:51:52;;;;;;;11.52;2.88;;;17.60;99.90;;;;;;4992573;28;20074;-83
2023/09/13 04:54:22;;;;;;;6.90;2.65;;;17.60;99.90;;;;;;4992092;28;20046;-83
2023/09/13 04:56:48;;;;;;;7.10;2.20;;;17.40;99.90;;;;;;4977557;28;20061;-82
2023/09/13 04:59:17;;;;;;;10.70;3.60;;;;;;;;;;4992520;28;20042;-82
2023/09/13 05:02:00;;;;;;;6.63;2.65;;;;;;;;;;4977901;28;20053;-82
2023/09/13 05:04:26;;;;;;;9.05;2.45;;;;;;;;;;4977664;28;20117;-80
2023/09/13 05:06:52;;;;;;;8.25;2.58;;;;;;;;;;4989136;28;20038;-78
2023/09/13 05:09:17;;;;;;;6.25;2.17;;;17.20;99.90;;;;;;5000309;28;20099;-78
2023/09/13 05:11:43;;;;;;;16.60;2.80;;;;;;;;;;4999855;28;20042;-79
2023/09/13 05:14:12;;;;;;;5.35;2.58;;;17.10;99.90;;;;;;4986992;28;20050;-81
2023/09/13 05:16:38;;;;;;;9.43;3.03;;;17.40;99.90;;;;;;5010694;28;20051;-80
2023/09/13 05:19:04;;;;;;;7.57;2.67;;;17.10;99.90;;;;;;4971002;28;20099;-80
2023/09/13 05:21:30;;;;;;;7.32;2.72;;;17.40;99.90;;;;;;4999460;28;20039;-80
2023/09/13 05:23:55;;;;;;;7.55;2.50;;;17.20;99.90;;;;;;4997804;28;20096;-80
2023/09/13 05:26:21;;;;;;;9.18;2.55;;;17.10;99.90;;;;;;4996472;28;20043;-81
2023/09/13 05:28:48;;;;;;;13.80;2.92;;;16.90;99.90;;;;;;4980366;28;20046;-81
2023/09/13 05:31:14;;;;;;;18.73;3.33;;;16.70;99.90;;;;;;4997168;28;20070;-82
2023/09/13 05:33:40;;;;;;;10.18;2.40;;;16.80;99.90;;;;;;4994099;28;20077;-81
2023/09/13 05:36:10;;;;;;;13.35;2.83;;;17.00;99.90;;;;;;4983903;28;20035;-80
2023/09/13 05:38:39;;;;;;;14.23;3.00;;;16.90;99.90;;;;;;4972310;28;20039;-81
2023/09/13 05:41:12;;;;;;;11.55;2.50;;;16.40;99.90;;;;;;4966018;28;20047;-79
2023/09/13 05:43:38;;;;;;;;;;;16.70;99.90;;;;;;4970220;28;20121;-79
2023/09/13 05:46:04;;;;;;;7.80;2.30;;;16.20;99.90;;;;;;4974471;28;19929;-81
2023/09/13 05:48:30;;;;;;;11.02;3.05;;;;;;;;;;4983553;28;20038;-80
2023/09/13 05:50:56;;;;;;;9.20;3.10;;;;;;;;;;4974608;28;20041;-80
2023/09/13 05:53:22;;;;;;;13.55;2.95;;;;;;;;;;4974710;28;20469;-80
2023/09/13 05:55:49;;;;;;;17.48;4.55;;;16.50;99.90;;;;;;4990358;28;20320;-81
2023/09/13 05:58:15;;;;;;;7.05;2.92;;;;;;;;;;4988701;28;20133;-81
2023/09/13 06:00:49;;;;;;;15.73;3.92;;;16.30;99.90;;;;;;4971268;28;20130;-81
2023/09/13 06:03:19;;;;;;;12.45;3.95;;;16.40;99.90;;;;;;4954895;28;20057;-81
2023/09/13 06:05:51;;;;;;;11.60;4.05;;;16.60;99.90;;;;;;4955603;28;20042;-80
2023/09/13 06:08:20;;;;;;;9.90;3.15;;;16.00;99.90;;;;;;4987146;28;20035;-78
2023/09/13 06:10:46;;;;;;;13.52;3.65;;;16.60;99.90;;;;;;4987101;28;20402;-79
2023/09/13 06:13:12;;;;;;;9.77;3.33;;;16.70;99.90;;;;;;4988552;28;20569;-82
2023/09/13 06:15:38;;;;;;;6.93;3.30;;;;;;;;;;4976015;28;20035;-80
2023/09/13 06:18:05;;;;;;;11.73;3.65;;;16.50;99.90;;;;;;4973389;28;20126;-81
2023/09/13 06:20:31;;;;;;;16.92;3.88;;;16.40;99.90;;;;;;4988511;28;20051;-79
2023/09/13 06:22:57;;;;;;;10.25;3.20;;;;;;;;;;4957474;28;20572;-79
2023/09/13 06:25:22;;;;;;;14.95;3.70;;;16.50;99.90;;;;;;4972848;28;20525;-77
2023/09/13 06:27:48;;;;;;;11.68;3.63;;;16.90;99.90;;;;;;4963390;28;20080;-83
2023/09/13 06:30:14;;;;;;;13.15;3.53;;;;;;;;;;4977038;28;20039;-81
2023/09/13 06:32:40;;;;;;;9.15;4.57;;;17.10;99.90;;;;;;4961684;28;20042;-81
2023/09/13 06:35:10;;;;;;;14.13;3.60;;;17.00;99.90;;;;;;4962134;28;20039;-80
2023/09/13 06:37:36;;;;;;;14.05;4.00;;;16.70;99.90;;;;;;4978273;28;20503;-81
2023/09/13 06:40:03;;;;;;;9.27;3.13;;;16.80;99.90;;;;;;4976728;28;20046;-81
2023/09/13 06:42:29;;;;;;;8.75;3.05;;;17.10;99.90;;;;;;4966367;28;20043;-81
2023/09/13 06:44:54;;;;;;;12.52;2.97;;;17.10;99.90;;;;;;4975668;28;20049;-80
2023/09/13 06:47:20;;;;;;;11.77;2.83;;;17.10;99.90;;;;;;4957159;28;20121;-79
2023/09/13 06:49:46;;;;;;;17.10;4.07;;;;;;;;;;4970093;28;20059;-77
2023/09/13 06:52:11;;;;;;;13.05;3.10;;;17.20;99.90;;;;;;4972377;28;20200;-79
2023/09/13 06:54:37;;;;;;;14.30;3.13;;;;;;;;;;4988344;28;20045;-79
2023/09/13 06:57:05;;;;;;;12.63;3.47;;;17.10;99.90;;;;;;4971853;28;20446;-79
2023/09/13 06:59:32;;;;;;;9.50;2.90;;;17.30;99.90;;;;;;4951093;28;20039;-79
2023/09/13 07:01:58;;;;;;;11.77;3.17;;;17.40;99.90;;;;;;4986375;28;20467;-79
2023/09/13 07:04:23;;;;;;;10.55;2.75;;;17.40;99.90;;;;;;4962189;28;20118;-79
2023/09/13 07:06:49;;;;;;;10.82;3.65;;;17.20;99.90;;;;;;4957202;28;20042;-80
2023/09/13 07:09:15;;;;;;;6.18;2.58;;;17.20;99.90;;;;;;4986739;28;20484;-80
2023/09/13 07:11:40;;;;;;;12.40;3.00;;;17.50;99.90;;;;;;4981407;28;20486;-79
2023/09/13 07:14:06;;;;;;;11.13;2.40;;;17.50;99.90;;;;;;4978797;28;20039;-79
2023/09/13 07:16:31;;;;;;;11.68;3.03;;;17.20;99.90;;;;;;4978228;28;20039;-80
2023/09/13 07:18:57;;;;;;;9.63;2.50;;;17.10;99.90;;;;;;4977084;28;20517;-79
2023/09/13 07:21:23;;;;;;;14.27;2.47;;;17.20;99.90;;;;;;4960114;28;20079;-78
2023/09/13 07:23:49;;;;;;;10.45;2.10;;;17.50;99.90;;;;;;4972582;28;20051;-76
2023/09/13 07:26:14;;;;;;;8.18;2.13;;;17.40;99.90;;;;;;4979243;28;20045;-79
2023/09/13 07:28:40;;;;;;;16.42;3.55;;;17.50;99.90;;;;;;4987542;28;20561;-79
2023/09/13 07:31:10;;;;;;;7.50;2.42;;;17.40;99.90;;;;;;4971919;28;20098;-79
2023/09/13 07:33:35;;;;;;;8.50;2.10;;;17.50;99.90;;;;;;4972028;28;20042;-79
2023/09/13 07:36:01;;;;;;;10.02;2.30;;;17.60;99.90;;;;;;4988281;28;20522;-78
2023/09/13 07:38:27;;;;;;;4.68;2.00;;;17.70;99.90;;;;;;4987547;28;20056;-79
2023/09/13 07:40:53;;;;;;;7.75;1.92;;;17.70;99.90;;;;;;4955820;28;20042;-78
2023/09/13 07:43:18;;;;;;;9.70;2.15;;;17.70;99.90;;;;;;4989539;28;20053;-78
2023/09/13 07:45:45;;;;;;;7.55;1.83;;;17.60;99.90;;;;;;4991855;28;20043;-79
2023/09/13 07:48:12;;;;;;;7.63;1.85;;;17.90;99.90;;;;;;4991875;28;20070;-78
2023/09/13 07:50:42;;;;;;;7.30;1.70;;;17.80;99.90;;;;;;4983076;28;20122;-79
2023/09/13 07:53:10;;;;;;;10.18;2.35;;;18.10;99.90;;;;;;4947381;29;20035;-79
2023/09/13 07:55:36;;;;;;;7.28;2.20;;;18.20;99.90;;;;;;4973514;28;20071;-79
2023/09/13 07:58:03;;;;;;;6.85;2.10;;;17.90;99.90;;;;;;4972702;28;20077;-79
2023/09/13 08:00:29;;;;;;;7.10;2.28;;;17.70;99.90;;;;;;4973279;28;20090;-79
2023/09/13 08:02:55;;;;;;;7.88;2.08;;;17.90;99.90;;;;;;4941602;29;20086;-79
2023/09/13 08:05:21;;;;;;;6.18;2.25;;;17.80;99.90;;;;;;4941496;29;20043;-79
2023/09/13 08:07:47;;;;;;;10.85;2.00;;;17.70;99.90;;;;;;4974015;28;20062;-79
2023/09/13 08:10:13;;;;;;;10.82;1.90;;;17.90;99.90;;;;;;4974667;28;20047;-79
2023/09/13 08:12:40;;;;;;;9.80;1.90;;;17.90;99.90;;;;;;4974367;28;20098;-79
2023/09/13 08:15:06;;;;;;;14.85;2.55;;;17.80;99.90;;;;;;4973970;28;20534;-79
2023/09/13 08:17:33;;;;;;;13.35;2.88;;;18.10;99.90;;;;;;4975137;28;20035;-79
2023/09/13 08:19:58;;;;;;;9.20;1.70;;;18.20;99.90;;;;;;4943285;29;20043;-79
2023/09/13 08:22:24;;;;;;;11.40;2.35;;;18.30;99.90;;;;;;4975633;28;20491;-79
2023/09/13 08:24:50;;;;;;;6.85;2.00;;;18.40;99.90;;;;;;4943748;28;20043;-79
2023/09/13 08:27:15;;;;;;;7.75;2.85;;;18.40;99.90;;;;;;4983038;28;20039;-79
2023/09/13 08:29:41;;;;;;;6.05;2.33;;;18.40;99.90;;;;;;4982642;28;20043;-79
2023/09/13 08:32:06;;;;;;;9.35;2.15;;;18.20;99.90;;;;;;4980413;28;20050;-79
2023/09/13 08:34:35;;;;;;;4.18;1.67;;;18.10;99.90;;;;;;4977828;28;20106;-79
2023/09/13 08:37:01;;;;;;;8.13;2.50;;;18.30;99.90;;;;;;4958927;28;20077;-79
2023/09/13 08:39:27;;;;;;;8.20;1.75;;;18.30;99.90;;;;;;4950109;28;20064;-79
2023/09/13 08:41:54;;;;;;;6.05;2.03;;;17.90;99.90;;;;;;4966592;28;20138;-79
2023/09/13 08:44:21;;;;;;;7.60;2.53;;;18.60;99.90;;;;;;4949010;28;20110;-79
2023/09/13 08:46:49;;;;;;;10.93;2.72;;;18.10;99.90;;;;;;4983460;28;20390;-79
2023/09/13 08:49:17;;;;;;;10.43;2.67;;;18.00;99.90;;;;;;4966947;28;20039;-78
2023/09/13 08:51:46;;;;;;;12.48;2.67;;;17.80;99.90;;;;;;4976431;28;20031;-79
2023/09/13 08:54:12;;;;;;;9.15;2.35;;;17.50;99.90;;;;;;4984726;28;20081;-80
2023/09/13 08:56:42;;;;;;;12.18;2.90;;;17.80;99.90;;;;;;4971382;28;20121;-80
2023/09/13 08:59:11;;;;;;;12.23;2.85;;;18.10;99.90;;;;;;4966636;28;20035;-80
2023/09/13 09:01:38;;;;;;;9.52;3.53;;;17.90;99.90;;;;;;4987885;28;20039;-80
2023/09/13 09:04:05;;;;;;;9.00;2.85;;;;;;;;;;4953183;28;20042;-79
2023/09/13 09:06:34;;;;;;;13.68;3.08;;;18.00;99.90;;;;;;4977454;28;20042;-81
2023/09/13 09:09:01;;;;;;;11.70;3.40;;;18.10;99.90;;;;;;4962885;28;20041;-81
2023/09/13 09:11:29;;;;;;;15.98;3.45;;;18.20;99.90;;;;;;4979445;28;20034;-80
2023/09/13 09:13:58;;;;;;;7.03;2.65;;;17.70;99.90;;;;;;4995292;28;20047;-81
2023/09/13 09:16:26;;;;;;;9.65;2.72;;;18.00;99.90;;;;;;4961997;28;20045;-81
2023/09/13 09:18:53;;;;;;;12.05;3.20;;;18.20;99.90;;;;;;4985838;28;20043;-80
2023/09/13 09:21:19;;;;;;;9.52;3.45;;;18.40;99.90;;;;;;4987331;28;20043;-81
2023/09/13 09:23:45;;;;;;;9.82;3.15;;;17.80;99.90;;;;;;4960482;29;20171;-82
2023/09/13 09:26:11;;;;;;;11.02;3.58;;;17.60;99.90;;;;;;4966718;28;20490;-79
2023/09/13 09:28:36;;;;;;;6.57;2.90;;;17.70;99.90;;;;;;4992486;28;20463;-80
2023/09/13 09:31:03;;;;;;;8.95;2.63;;;17.80;99.90;;;;;;4961612;28;20110;-80
2023/09/13 09:33:30;;;;;;;9.50;3.30;;;17.20;99.90;;;;;;4985804;28;20043;-80
2023/09/13 09:35:58;;;;;;;8.13;3.00;;;17.20;99.90;;;;;;4985543;28;20062;-81
2023/09/13 09:38:26;;;;;;;7.68;2.35;;;17.50;99.90;;;;;;4987597;28;20038;-80
2023/09/13 09:40:56;;;;;;;9.63;3.05;;;16.90;99.90;;;;;;4972994;28;20044;-81
2023/09/13 09:43:22;;;;;;;6.88;3.17;;;16.80;99.90;;;;;;4964105;28;20049;-81
2023/09/13 09:45:48;;;;;;;8.40;2.83;;;17.00;99.90;;;;;;4974109;28;20023;-80
2023/09/13 09:48:14;;;;;;;5.97;2.63;;;17.20;99.90;;;;;;5015133;28;20074;-81
2023/09/13 09:50:48;;;;;;;10.20;2.60;;;17.10;99.90;;;;;;4982212;28;20050;-81
2023/09/13 09:53:17;;;;;;;5.88;3.17;;;17.30;99.90;;;;;;4966492;28;20038;-81
2023/09/13 09:55:43;;;;;;;6.65;2.72;;;17.50;99.90;;;;;;4974189;28;20038;-81
2023/09/13 09:58:09;;;;;;;6.00;2.10;;;18.00;99.90;;;;;;4980880;28;20043;-81
2023/09/13 10:00:53;;;;;;;5.43;2.47;;;18.40;99.90;;;;;;4981498;28;20053;-81
2023/09/13 10:03:19;;;;;;;;;;;18.10;99.90;;;;;;4982315;28;20047;-81
2023/09/13 10:06:11;;;;;;;9.57;2.40;;;18.60;99.90;;;;;;4964523;28;19918;-82
2023/09/13 10:08:45;;;;;;;6.70;2.58;;;18.80;99.90;;;;;;4964336;28;20035;-82
2023/09/13 10:11:15;;;;;;;5.90;2.13;;;18.40;99.90;;;;;;4980719;28;20494;-81
2023/09/13 10:13:45;;;;;;;5.57;2.15;;;18.50;99.90;;;;;;4980675;28;20047;-81
2023/09/13 10:16:11;;;;;;;5.15;2.55;;;18.60;99.90;;;;;;4980896;28;20043;-81
2023/09/13 10:18:46;;;;;;;6.05;3.65;;;18.80;99.90;;;;;;4982143;28;20043;-81
2023/09/13 10:21:21;;;;;;;8.65;3.10;;;19.10;99.90;;;;;;4978588;28;20038;-81
2023/09/13 10:23:52;;;;;;;5.78;3.15;;;19.30;99.90;;;;;;4975453;28;20051;-82
2023/09/13 10:26:20;;;;;;;7.25;3.15;;;19.20;99.90;;;;;;4976941;28;20298;-82
2023/09/13 10:28:49;;;;;;;5.40;3.30;;;19.40;99.90;;;;;;4973930;28;20042;-82
2023/09/13 10:31:30;;;;;;;6.53;3.25;;;19.70;99.90;;;;;;4973906;28;20053;-82
2023/09/13 10:34:01;;;;;;;7.47;3.28;;;20.00;99.90;;;;;;4973732;28;20530;-82
2023/09/13 10:36:33;;;;;;;6.30;3.50;;;19.70;99.90;;;;;;4974223;28;20351;-82
2023/09/13 10:39:17;;;;;;;4.97;2.58;;;19.80;99.90;;;;;;4973852;28;20046;-82
2023/09/13 10:41:58;;;;;;;6.28;3.15;;;19.80;99.90;;;;;;4974234;28;20548;-82
2023/09/13 10:44:24;;;;;;;9.02;2.95;;;19.60;99.90;;;;;;4973790;28;20043;-83
2023/09/13 10:46:50;;;;;;;8.77;2.30;;;19.80;99.90;;;;;;4973746;28;20042;-82
2023/09/13 10:49:16;;;;;;;6.30;2.47;;;20.10;99.90;;;;;;4973833;28;20039;-82
2023/09/13 10:51:43;;;;;;;5.57;2.47;;;21.00;99.90;;;;;;4990612;28;20406;-81
2023/09/13 10:54:09;;;;;;;5.72;2.70;;;19.60;99.90;;;;;;4975702;28;20105;-81
2023/09/13 10:56:35;;;;;;;7.80;2.50;;;19.90;99.90;;;;;;4991379;28;20043;-81
2023/09/13 10:59:01;;;;;;;5.93;2.30;;;19.90;99.90;;;;;;4979884;28;20039;-80
2023/09/13 11:01:28;;;;;;;6.07;2.85;;;19.60;99.90;;;;;;4972727;28;20043;-81
2023/09/13 11:03:54;;;;;;;7.82;2.78;;;19.90;99.90;;;;;;4955358;29;20384;-81
2023/09/13 11:06:22;;;;;;;6.25;2.50;;;20.10;99.90;;;;;;4971185;28;20467;-80
2023/09/13 11:08:48;;;;;;;6.25;2.67;;;20.30;99.90;;;;;;4974220;28;20043;-81
2023/09/13 11:11:20;;;;;;;8.07;3.05;;;20.30;99.90;;;;;;4945652;28;20043;-81
2023/09/13 11:13:50;;;;;;;6.82;2.67;;;20.50;99.90;;;;;;4970963;28;20422;-80
2023/09/13 11:16:17;;;;;;;8.35;2.50;;;20.60;99.90;;;;;;4956504;28;20490;-81
2023/09/13 11:18:55;;;;;;;5.00;2.58;;;20.50;99.90;;;;;;4957118;28;20046;-80
2023/09/13 11:21:28;;;;;;;4.55;2.60;;;20.40;99.90;;;;;;4969398;28;20509;-81
2023/09/13 11:23:55;;;;;;;5.45;3.10;;;20.80;99.90;;;;;;4972603;28;20047;-80
2023/09/13 11:26:48;;;;;;;5.07;2.40;;;20.40;99.90;;;;;;4989528;28;20046;-81
2023/09/13 11:29:22;;;;;;;;;;;20.40;99.90;;;;;;4982241;28;20043;-81
2023/09/13 11:32:03;;;;;;;4.40;2.35;;;20.00;99.90;;;;;;4972876;28;19922;-81
2023/09/13 11:34:33;;;;;;;7.07;2.70;;;19.90;99.90;;;;;;4988939;28;20051;-76
2023/09/13 11:37:00;;;;;;;8.50;2.90;;;19.90;99.90;;;;;;4989793;28;20522;-82
2023/09/13 11:39:27;;;;;;;6.13;2.85;;;20.10;99.90;;;;;;4958229;28;20510;-82
2023/09/13 11:41:55;;;;;;;6.63;2.67;;;20.60;99.90;;;;;;4988290;28;20485;-82
2023/09/13 11:44:25;;;;;;;5.13;2.30;;;20.60;99.90;;;;;;4984291;28;20129;-82
2023/09/13 11:46:51;;;;;;;9.13;2.67;;;20.20;99.90;;;;;;4995626;28;20038;-83
2023/09/13 11:49:23;;;;;;;5.97;2.95;;;20.40;99.90;;;;;;4965286;28;20042;-83
2023/09/13 11:51:53;;;;;;;6.45;2.63;;;20.70;99.90;;;;;;4997753;28;20126;-83
2023/09/13 11:54:22;;;;;;;5.30;2.20;;;20.70;99.90;;;;;;4968471;28;20406;-82
2023/09/13 11:56:55;;;;;;;6.10;2.22;;;20.60;99.90;;;;;;4965819;28;20065;-83
2023/09/13 11:59:24;;;;;;;;;;;21.10;99.90;;;;;;4983015;28;20051;-82
2023/09/13 12:01:51;;;;;;;5.18;1.60;;;20.60;99.90;;;;;;4976025;28;19918;-82
2023/09/13 12:04:17;;;;;;;5.72;2.08;;;20.40;99.90;;;;;;4956874;28;20046;-83
2023/09/13 12:06:44;;;;;;;7.72;2.53;;;20.40;99.90;;;;;;4990174;28;20134;-83
2023/09/13 12:09:11;;;;;;;5.63;2.38;;;20.30;99.90;;;;;;4985243;28;20039;-83
2023/09/13 12:11:38;;;;;;;9.63;2.22;;;20.10;99.90;;;;;;4939915;29;20039;-83
2023/09/13 12:14:04;;;;;;;6.97;2.40;;;20.00;99.90;;;;;;4990600;28;20050;-82
2023/09/13 12:16:31;;;;;;;5.95;1.80;;;19.70;99.90;;;;;;4980569;28;20043;-82
2023/09/13 12:18:56;;;;;;;8.60;2.03;;;20.70;99.90;;;;;;4982524;28;20046;-82
2023/09/13 12:21:22;;;;;;;4.72;1.27;;;21.30;99.90;;;;;;4985271;28;20135;-82
2023/09/13 12:23:47;;;;;;;5.97;1.80;;;19.90;99.90;;;;;;4991037;28;20047;-82
2023/09/13 12:26:17;;;;;;;6.45;1.60;;;19.50;99.90;;;;;;4959089;28;20035;-82
2023/09/13 12:28:45;;;;;;;3.92;1.15;;;19.40;99.90;;;;;;4992163;28;20058;-82
2023/09/13 12:31:16;;;;;;;4.75;1.65;;;20.30;99.90;;;;;;4994582;28;20198;-83
2023/09/13 12:33:44;;;;;;;4.28;1.70;;;19.90;99.90;;;;;;4994801;28;20042;-82
2023/09/13 12:36:10;;;;;;;7.18;1.52;;;20.20;99.90;;;;;;4977432;28;20430;-82
2023/09/13 12:38:42;;;;;;;2.85;1.20;;;19.70;99.90;;;;;;4985224;28;20525;-83
2023/09/13 12:41:09;;;;;;;5.07;1.63;;;19.80;99.90;;;;;;4989148;28;20049;-82
2023/09/13 12:43:39;;;;;;;5.93;1.15;;;19.60;99.90;;;;;;4995346;28;20035;-82
2023/09/13 12:46:07;;;;;;;3.53;1.00;;;19.70;99.90;;;;;;4994498;28;20125;-82
2023/09/13 12:48:32;;;;;;;4.78;1.67;;;19.70;99.90;;;;;;4994234;28;20053;-82
2023/09/13 12:51:01;;;;;;;2.65;0.98;;;20.00;99.90;;;;;;4961628;28;20043;-83
2023/09/13 12:53:28;;;;;;;7.60;1.10;;;20.30;99.90;;;;;;4994358;28;20073;-82